Time;durP1;ratioP1;P1;durP2;ratioP2;P2;SDS_P1;SDS_P2;PMS_P1;PMS_P2;Temp;Humidity;BMP_temperature;BMP_pressure;BME280_temperature;BME280_humidity;BME280_pressure;Samples;Min_cycle;Max_cycle;Signal;HPM_P1;HPM_P2
2023/03/30 00:02:22;;;;;;;9.57;4.28;;;10.60;99.90;;;;;;5070525;28;20037;-73
2023/03/30 00:04:48;;;;;;;8.48;4.28;;;10.60;99.90;;;;;;5063209;28;20047;-73
2023/03/30 00:07:14;;;;;;;8.43;3.60;;;10.60;99.90;;;;;;5073155;28;20044;-73
2023/03/30 00:09:41;;;;;;;9.07;4.32;;;10.60;99.90;;;;;;5050956;28;20039;-73
2023/03/30 00:12:07;;;;;;;7.35;3.58;;;10.60;99.90;;;;;;5073215;28;20044;-73
2023/03/30 00:14:36;;;;;;;7.30;3.50;;;10.60;99.90;;;;;;5073075;28;20684;-73
2023/03/30 00:17:03;;;;;;;6.93;3.38;;;10.60;99.90;;;;;;5072843;28;20050;-72
2023/03/30 00:19:30;;;;;;;6.40;3.17;;;10.60;99.90;;;;;;5084433;27;20048;-73
2023/03/30 00:21:56;;;;;;;10.65;4.55;;;10.60;99.90;;;;;;5064494;28;20041;-72
2023/03/30 00:24:22;;;;;;;6.63;3.42;;;10.60;99.90;;;;;;5091851;28;20185;-72
2023/03/30 00:26:48;;;;;;;8.20;3.63;;;10.60;99.90;;;;;;5071333;28;20117;-73
2023/03/30 00:29:13;;;;;;;7.70;3.65;;;10.60;99.90;;;;;;5074201;28;20170;-73
2023/03/30 00:31:39;;;;;;;7.18;3.72;;;10.60;99.90;;;;;;5067673;28;20183;-72
2023/03/30 00:34:05;;;;;;;9.10;4.22;;;10.60;99.90;;;;;;5073804;28;20123;-73
2023/03/30 00:36:35;;;;;;;6.95;3.30;;;10.60;99.90;;;;;;5087617;28;20549;-73
2023/03/30 00:39:05;;;;;;;8.85;3.03;;;10.60;99.90;;;;;;5052622;28;20032;-73
2023/03/30 00:41:37;;;;;;;8.43;3.85;;;10.60;99.90;;;;;;5067000;28;20036;-72
2023/03/30 00:44:05;;;;;;;7.70;2.97;;;10.60;99.90;;;;;;5065901;28;20032;-73
2023/03/30 00:46:32;;;;;;;6.13;2.75;;;10.60;99.90;;;;;;5068641;28;20124;-73
2023/03/30 00:49:05;;;;;;;6.18;2.53;;;10.50;99.90;;;;;;5078543;28;20035;-72
2023/03/30 00:51:36;;;;;;;5.75;2.53;;;10.60;99.90;;;;;;5051582;28;20127;-72
2023/03/30 00:54:11;;;;;;;6.00;2.70;;;10.60;99.90;;;;;;5074057;28;20031;-72
2023/03/30 00:56:36;;;;;;;8.55;2.67;;;10.60;99.90;;;;;;5089666;28;20792;-73
2023/03/30 00:59:02;;;;;;;5.00;2.10;;;10.60;99.90;;;;;;5071915;28;20024;-72
2023/03/30 01:01:30;;;;;;;4.18;2.35;;;10.60;99.90;;;;;;5066993;28;20132;-73
2023/03/30 01:04:04;;;;;;;5.57;2.22;;;10.60;99.90;;;;;;5076822;28;20034;-72
2023/03/30 01:06:30;;;;;;;6.03;2.70;;;10.60;99.90;;;;;;5103529;27;20036;-72
2023/03/30 01:08:59;;;;;;;4.43;2.33;;;10.60;99.90;;;;;;5067149;28;20031;-73
2023/03/30 01:11:25;;;;;;;4.30;2.15;;;10.60;99.90;;;;;;5066937;28;20076;-73
2023/03/30 01:14:04;;;;;;;6.95;2.13;;;10.60;99.90;;;;;;5073918;28;20036;-72
2023/03/30 01:16:43;;;;;;;7.47;2.72;;;10.60;99.90;;;;;;5073863;28;20032;-72
2023/03/30 01:19:33;;;;;;;4.28;2.50;;;10.60;99.90;;;;;;5070615;28;20497;-73
2023/03/30 01:22:24;;;;;;;5.30;2.42;;;10.60;99.90;;;;;;5068472;28;20048;-72
2023/03/30 01:25:01;;;;;;;3.83;2.17;;;10.70;99.90;;;;;;5072206;28;20127;-72
2023/03/30 01:28:03;;;;;;;7.47;2.38;;;10.70;99.90;;;;;;5104533;27;20036;-72
2023/03/30 01:30:41;;;;;;;4.47;1.80;;;10.70;99.90;;;;;;5088180;28;20120;-72
2023/03/30 01:33:26;;;;;;;4.85;2.13;;;10.70;99.90;;;;;;5060732;28;20083;-73
2023/03/30 01:36:16;;;;;;;5.05;2.10;;;10.70;99.90;;;;;;5073759;28;20518;-72
2023/03/30 01:39:12;;;;;;;4.75;2.20;;;10.80;99.90;;;;;;5069444;28;20111;-73
2023/03/30 01:41:50;;;;;;;4.20;2.25;;;10.80;99.90;;;;;;5070613;28;20550;-72
2023/03/30 01:44:27;;;;;;;4.65;2.35;;;10.80;99.90;;;;;;5082413;28;20044;-72
2023/03/30 01:47:10;;;;;;;5.65;1.98;;;10.80;99.90;;;;;;5073099;28;20038;-72
2023/03/30 01:50:00;;;;;;;5.95;2.03;;;10.80;99.90;;;;;;5074664;28;20081;-72
2023/03/30 01:52:46;;;;;;;4.65;2.15;;;10.80;99.90;;;;;;5086629;28;20040;-72
2023/03/30 01:55:40;;;;;;;5.03;1.98;;;10.80;99.90;;;;;;5102188;27;20497;-72
2023/03/30 01:58:10;;;;;;;7.45;2.70;;;10.90;99.90;;;;;;5075770;28;20036;-72
2023/03/30 02:00:39;;;;;;;4.20;2.03;;;10.80;99.90;;;;;;5100525;27;20039;-72
2023/03/30 02:03:12;;;;;;;5.13;1.98;;;10.90;99.90;;;;;;5078048;28;20041;-72
2023/03/30 02:05:39;;;;;;;3.67;2.15;;;10.90;99.90;;;;;;5074875;28;20600;-72
2023/03/30 02:08:28;;;;;;;8.05;2.40;;;10.90;99.90;;;;;;5074684;28;20039;-72
2023/03/30 02:10:57;;;;;;;6.28;2.30;;;10.90;99.90;;;;;;5107039;27;20040;-72
2023/03/30 02:13:26;;;;;;;4.63;2.03;;;10.90;99.90;;;;;;5068107;28;20314;-72
2023/03/30 02:16:00;;;;;;;5.55;1.92;;;10.90;99.90;;;;;;5056508;28;20441;-72
2023/03/30 02:18:26;;;;;;;4.50;2.10;;;10.90;99.90;;;;;;5056009;28;20044;-72
2023/03/30 02:20:52;;;;;;;3.85;2.17;;;11.00;99.90;;;;;;5072048;28;20028;-72
2023/03/30 02:23:20;;;;;;;4.07;2.13;;;10.90;99.90;;;;;;5055820;28;20050;-72
2023/03/30 02:25:45;;;;;;;3.75;1.95;;;10.90;99.90;;;;;;5070900;28;20085;-73
2023/03/30 02:28:11;;;;;;;5.72;1.83;;;10.90;99.90;;;;;;5085139;28;20032;-73
2023/03/30 02:30:43;;;;;;;7.85;2.08;;;10.90;99.90;;;;;;5082739;28;20485;-72
2023/03/30 02:33:40;;;;;;;5.10;2.00;;;10.80;99.90;;;;;;5074353;28;20048;-72
2023/03/30 02:36:26;;;;;;;3.90;1.85;;;10.80;99.90;;;;;;5055701;28;20474;-72
2023/03/30 02:39:06;;;;;;;5.72;2.15;;;10.80;99.90;;;;;;5086903;28;20433;-72
2023/03/30 02:42:13;;;;;;;4.57;1.88;;;10.80;99.90;;;;;;5052268;28;20124;-72
2023/03/30 02:44:44;;;;;;;;;;;10.80;99.90;;;;;;5067040;28;20044;-72
2023/03/30 02:47:51;;;;;;;3.97;1.77;;;10.80;99.90;;;;;;5073574;28;20407;-72
2023/03/30 02:51:01;;;;;;;2.90;1.70;;;10.80;99.90;;;;;;5069062;28;20040;-71
2023/03/30 02:53:41;;;;;;;4.25;1.90;;;10.90;99.90;;;;;;5037708;28;20083;-72
2023/03/30 02:56:36;;;;;;;4.70;1.63;;;10.90;99.90;;;;;;5087356;28;20064;-72
2023/03/30 02:59:12;;;;;;;7.28;2.20;;;10.90;99.90;;;;;;5072526;28;20501;-72
2023/03/30 03:01:56;;;;;;;4.22;1.95;;;10.80;99.90;;;;;;5071305;28;20044;-73
2023/03/30 03:04:24;;;;;;;5.30;2.28;;;10.80;99.90;;;;;;5057057;28;20043;-73
2023/03/30 03:06:51;;;;;;;4.72;2.03;;;10.80;99.90;;;;;;5073572;28;20371;-73
2023/03/30 03:09:19;;;;;;;6.35;2.10;;;10.70;99.90;;;;;;5078303;28;20028;-73
2023/03/30 03:11:45;;;;;;;4.10;1.95;;;10.70;99.90;;;;;;5075546;28;20052;-72
2023/03/30 03:14:11;;;;;;;6.35;2.25;;;10.70;99.90;;;;;;5072319;28;20149;-72
2023/03/30 03:16:37;;;;;;;4.82;2.13;;;10.70;99.90;;;;;;5070265;28;20807;-73
2023/03/30 03:19:03;;;;;;;6.22;1.88;;;10.60;99.90;;;;;;5061504;28;20032;-72
2023/03/30 03:21:29;;;;;;;4.80;1.55;;;10.60;99.90;;;;;;5080865;28;20062;-72
2023/03/30 03:23:55;;;;;;;4.93;1.90;;;10.60;99.90;;;;;;5077511;28;20525;-72
2023/03/30 03:26:21;;;;;;;5.88;2.25;;;10.60;99.90;;;;;;5110220;27;20162;-72
2023/03/30 03:28:47;;;;;;;3.17;1.70;;;10.60;99.90;;;;;;5071517;28;20730;-72
2023/03/30 03:31:12;;;;;;;4.13;1.77;;;10.60;99.90;;;;;;5072702;28;20044;-72
2023/03/30 03:33:38;;;;;;;4.25;1.73;;;10.60;99.90;;;;;;5077892;28;20075;-72
2023/03/30 03:36:05;;;;;;;4.28;2.20;;;10.60;99.90;;;;;;5073091;28;20528;-73
2023/03/30 03:38:31;;;;;;;5.55;1.80;;;10.60;99.90;;;;;;5076400;28;20513;-72
2023/03/30 03:40:58;;;;;;;4.18;1.83;;;10.60;99.90;;;;;;5059199;28;20036;-72
2023/03/30 03:43:24;;;;;;;3.67;1.33;;;10.70;99.90;;;;;;5073385;28;20032;-72
2023/03/30 03:45:51;;;;;;;2.58;1.38;;;10.70;99.90;;;;;;5055356;28;20060;-73
2023/03/30 03:48:19;;;;;;;3.88;1.45;;;10.70;99.90;;;;;;5071900;28;20033;-73
2023/03/30 03:50:48;;;;;;;3.80;1.48;;;10.70;99.90;;;;;;5076068;28;20148;-73
2023/03/30 03:53:13;;;;;;;3.13;1.35;;;10.80;99.90;;;;;;5055235;28;20063;-72
2023/03/30 03:55:40;;;;;;;4.68;1.55;;;10.90;99.90;;;;;;5069737;28;20534;-72
2023/03/30 03:58:06;;;;;;;3.50;1.40;;;10.90;99.90;;;;;;5077409;28;20055;-73
2023/03/30 04:00:33;;;;;;;3.55;1.30;;;11.00;99.90;;;;;;5086961;28;20040;-72
2023/03/30 04:02:59;;;;;;;2.35;1.10;;;11.00;99.90;;;;;;5070467;28;20588;-72
2023/03/30 04:05:25;;;;;;;4.45;1.50;;;11.00;99.90;;;;;;5070549;28;20051;-72
2023/03/30 04:07:52;;;;;;;3.92;1.50;;;11.10;99.90;;;;;;5052015;28;20032;-72
2023/03/30 04:10:18;;;;;;;5.35;1.83;;;11.10;99.90;;;;;;5071849;28;20041;-72
2023/03/30 04:12:43;;;;;;;3.90;1.30;;;11.20;99.90;;;;;;5055697;28;20070;-73
2023/03/30 04:15:09;;;;;;;3.55;1.17;;;11.20;99.90;;;;;;5074612;28;20032;-72
2023/03/30 04:17:35;;;;;;;2.10;1.05;;;11.20;99.90;;;;;;5071454;28;20100;-73
2023/03/30 04:20:09;;;;;;;3.50;1.20;;;11.30;99.90;;;;;;5056211;28;20032;-72
2023/03/30 04:22:35;;;;;;;3.20;1.00;;;11.30;99.90;;;;;;5073296;28;20036;-72
2023/03/30 04:25:05;;;;;;;2.70;1.08;;;11.50;99.90;;;;;;5052220;28;20055;-73
2023/03/30 04:27:31;;;;;;;3.15;1.33;;;11.50;99.90;;;;;;5069514;28;20478;-73
2023/03/30 04:29:57;;;;;;;2.55;1.27;;;11.50;99.90;;;;;;5054245;28;20045;-73
2023/03/30 04:32:23;;;;;;;2.97;0.90;;;11.60;99.90;;;;;;5107025;27;20127;-73
2023/03/30 04:34:53;;;;;;;4.38;1.20;;;11.60;99.90;;;;;;5101315;27;20446;-73
2023/03/30 04:37:28;;;;;;;3.70;1.35;;;11.60;99.90;;;;;;5091421;28;20036;-72
2023/03/30 04:40:01;;;;;;;4.13;1.48;;;11.60;99.90;;;;;;5106630;27;20043;-72
2023/03/30 04:42:33;;;;;;;3.08;1.45;;;11.70;99.90;;;;;;5064147;28;20139;-72
2023/03/30 04:45:02;;;;;;;5.15;1.70;;;11.70;99.90;;;;;;5103762;27;20093;-73
2023/03/30 04:47:28;;;;;;;2.92;1.27;;;11.70;99.90;;;;;;5076604;28;20124;-73
2023/03/30 04:49:54;;;;;;;3.10;1.20;;;11.70;99.90;;;;;;5079419;28;20074;-72
2023/03/30 04:52:20;;;;;;;3.17;1.23;;;11.70;99.90;;;;;;5088005;28;20047;-73
2023/03/30 04:54:46;;;;;;;4.72;1.27;;;11.70;99.90;;;;;;5071345;28;20040;-73
2023/03/30 04:57:13;;;;;;;2.83;0.95;;;11.70;99.90;;;;;;5058077;28;20032;-73
2023/03/30 04:59:39;;;;;;;3.25;1.30;;;11.70;99.90;;;;;;5070603;28;20036;-73
2023/03/30 05:02:05;;;;;;;2.97;1.33;;;11.70;99.90;;;;;;5070596;28;20043;-72
2023/03/30 05:04:31;;;;;;;3.67;1.48;;;11.70;99.90;;;;;;5055445;28;20036;-73
2023/03/30 05:06:56;;;;;;;2.28;1.67;;;11.60;99.90;;;;;;5050108;28;20078;-73
2023/03/30 05:09:23;;;;;;;3.60;1.85;;;11.60;99.90;;;;;;5077409;28;20104;-72
2023/03/30 05:11:49;;;;;;;3.65;1.15;;;11.60;99.90;;;;;;5077471;28;20032;-72
2023/03/30 05:14:15;;;;;;;2.13;1.08;;;11.50;99.90;;;;;;5069165;28;20290;-73
2023/03/30 05:16:41;;;;;;;3.17;1.00;;;11.50;99.90;;;;;;5086321;28;20290;-73
2023/03/30 05:19:07;;;;;;;3.60;1.35;;;11.40;99.90;;;;;;5074094;28;20122;-72
2023/03/30 05:21:32;;;;;;;2.67;1.17;;;11.40;99.90;;;;;;5074938;28;20074;-72
2023/03/30 05:23:58;;;;;;;7.28;1.40;;;11.40;99.90;;;;;;5074399;28;20044;-72
2023/03/30 05:26:25;;;;;;;3.20;1.35;;;11.30;99.90;;;;;;5057864;28;20068;-73
2023/03/30 05:28:51;;;;;;;3.10;1.67;;;11.30;99.90;;;;;;5052338;28;20101;-72
2023/03/30 05:31:18;;;;;;;3.05;1.17;;;11.20;99.90;;;;;;5069085;28;20571;-73
2023/03/30 05:33:43;;;;;;;3.38;1.23;;;11.30;99.90;;;;;;5071251;28;20046;-73
2023/03/30 05:36:09;;;;;;;3.50;1.55;;;11.30;99.90;;;;;;5054063;28;20048;-73
2023/03/30 05:38:35;;;;;;;3.97;1.48;;;11.30;99.90;;;;;;5073106;28;20044;-73
2023/03/30 05:41:01;;;;;;;3.05;1.25;;;11.30;99.90;;;;;;5105571;27;20123;-73
2023/03/30 05:43:27;;;;;;;3.88;1.65;;;11.30;99.90;;;;;;5100378;27;20044;-73
2023/03/30 05:45:52;;;;;;;3.55;1.30;;;11.20;99.90;;;;;;5069925;28;20036;-73
2023/03/30 05:48:18;;;;;;;3.53;1.27;;;11.20;99.90;;;;;;5072228;28;20079;-72
2023/03/30 05:50:46;;;;;;;3.05;1.35;;;11.30;99.90;;;;;;5071320;28;20124;-73
2023/03/30 05:53:12;;;;;;;2.85;1.40;;;11.20;99.90;;;;;;5052793;28;20036;-72
2023/03/30 05:55:38;;;;;;;3.67;1.20;;;11.30;99.90;;;;;;5054934;28;20042;-72
2023/03/30 05:58:03;;;;;;;4.32;1.17;;;11.40;99.90;;;;;;5066073;28;20039;-72
2023/03/30 06:00:32;;;;;;;3.72;1.30;;;11.30;99.90;;;;;;5070831;28;20040;-73
2023/03/30 06:02:58;;;;;;;3.83;1.30;;;11.30;99.90;;;;;;5103322;27;20457;-72
2023/03/30 06:05:24;;;;;;;1.67;0.98;;;11.40;99.90;;;;;;5081621;28;20075;-72
2023/03/30 06:07:50;;;;;;;2.80;1.40;;;11.40;99.90;;;;;;5069318;28;20052;-72
2023/03/30 06:10:19;;;;;;;1.95;0.98;;;11.40;99.90;;;;;;5071009;28;20396;-73
2023/03/30 06:12:44;;;;;;;3.10;1.10;;;11.50;99.90;;;;;;5065468;28;20043;-72
2023/03/30 06:15:10;;;;;;;2.13;1.10;;;11.50;99.90;;;;;;5106337;27;20105;-73
2023/03/30 06:17:36;;;;;;;3.90;1.00;;;11.50;99.90;;;;;;5107012;27;20040;-73
2023/03/30 06:20:09;;;;;;;2.72;1.30;;;11.50;99.90;;;;;;5071517;28;20030;-73
2023/03/30 06:22:35;;;;;;;2.80;0.90;;;11.50;99.90;;;;;;5101279;27;20043;-72
2023/03/30 06:25:01;;;;;;;2.03;0.90;;;11.50;99.90;;;;;;5072266;28;20032;-72
2023/03/30 06:27:30;;;;;;;4.82;1.20;;;11.50;99.90;;;;;;5072047;28;20062;-72
2023/03/30 06:29:56;;;;;;;2.15;0.82;;;11.60;99.90;;;;;;5069004;28;20040;-72
2023/03/30 06:32:21;;;;;;;7.43;1.20;;;11.50;99.90;;;;;;5070739;28;20054;-72
2023/03/30 06:34:47;;;;;;;2.38;1.10;;;11.50;99.90;;;;;;5074650;28;20043;-74
2023/03/30 06:37:14;;;;;;;4.60;1.30;;;11.50;99.90;;;;;;5071935;28;20079;-73
2023/03/30 06:39:40;;;;;;;3.97;1.20;;;11.40;99.90;;;;;;5071248;28;20041;-73
2023/03/30 06:42:06;;;;;;;6.00;2.45;;;11.50;99.90;;;;;;5080680;28;20039;-72
2023/03/30 06:44:33;;;;;;;3.65;1.23;;;11.40;99.90;;;;;;5045217;28;20061;-72
2023/03/30 06:46:59;;;;;;;2.58;1.35;;;11.50;99.90;;;;;;5083589;28;21261;-72
2023/03/30 06:49:25;;;;;;;3.20;1.42;;;11.50;99.90;;;;;;5067292;28;20490;-72
2023/03/30 06:51:51;;;;;;;3.17;1.40;;;11.50;99.90;;;;;;5062693;28;20040;-72
2023/03/30 06:54:19;;;;;;;2.67;1.30;;;11.60;99.90;;;;;;5072669;28;20150;-73
2023/03/30 06:56:46;;;;;;;5.28;1.60;;;11.60;99.90;;;;;;5052696;28;20129;-72
2023/03/30 06:59:12;;;;;;;4.07;1.58;;;11.60;99.90;;;;;;5070195;28;20549;-72
2023/03/30 07:01:38;;;;;;;4.38;1.35;;;11.60;99.90;;;;;;5101372;28;20040;-72
2023/03/30 07:04:04;;;;;;;8.25;1.30;;;11.60;99.90;;;;;;5046748;28;20050;-72
2023/03/30 07:06:29;;;;;;;4.22;1.42;;;11.60;99.90;;;;;;5069956;28;20148;-72
2023/03/30 07:08:55;;;;;;;3.55;1.50;;;11.60;99.90;;;;;;5068609;28;20060;-72
2023/03/30 07:11:21;;;;;;;4.05;1.40;;;11.60;99.90;;;;;;5069214;28;20079;-72
2023/03/30 07:13:47;;;;;;;4.15;1.33;;;11.70;99.90;;;;;;5065325;28;20053;-72
2023/03/30 07:16:12;;;;;;;2.92;1.20;;;11.70;99.90;;;;;;5067933;28;20044;-72
2023/03/30 07:18:38;;;;;;;2.55;0.80;;;11.70;99.90;;;;;;5089237;28;20052;-72
2023/03/30 07:21:04;;;;;;;2.50;1.10;;;11.70;99.90;;;;;;5099498;28;20075;-72
2023/03/30 07:23:30;;;;;;;5.32;1.35;;;11.70;99.90;;;;;;5058524;28;20067;-72
2023/03/30 07:25:57;;;;;;;3.55;1.65;;;11.80;99.90;;;;;;5076308;28;20037;-72
2023/03/30 07:28:22;;;;;;;6.22;1.00;;;11.80;99.90;;;;;;5078112;28;20052;-72
2023/03/30 07:30:48;;;;;;;2.30;1.20;;;11.80;99.90;;;;;;5065946;28;20580;-78
2023/03/30 07:33:14;;;;;;;2.33;0.93;;;11.80;99.90;;;;;;5080959;28;20097;-77
2023/03/30 07:35:44;;;;;;;3.05;0.85;;;11.90;99.90;;;;;;5074001;28;20394;-72
2023/03/30 07:38:10;;;;;;;2.85;0.93;;;11.90;99.90;;;;;;5066834;28;20216;-72
2023/03/30 07:40:36;;;;;;;3.50;1.05;;;11.90;99.90;;;;;;5074083;28;20879;-72
2023/03/30 07:43:02;;;;;;;5.22;1.40;;;11.90;99.90;;;;;;5071894;28;20084;-72
2023/03/30 07:45:27;;;;;;;4.10;1.30;;;12.00;99.90;;;;;;5068669;28;20173;-73
2023/03/30 07:47:53;;;;;;;3.70;0.80;;;12.00;99.90;;;;;;5061677;28;20457;-72
2023/03/30 07:50:19;;;;;;;8.40;1.75;;;12.00;99.90;;;;;;5070603;28;20127;-72
2023/03/30 07:52:44;;;;;;;4.95;1.67;;;12.00;99.90;;;;;;5053294;28;20036;-72
2023/03/30 07:55:10;;;;;;;2.55;0.85;;;12.00;99.90;;;;;;5069522;28;20079;-71
2023/03/30 07:57:35;;;;;;;8.85;2.05;;;12.00;99.90;;;;;;5070092;28;20447;-71
2023/03/30 08:00:04;;;;;;;7.30;1.60;;;12.00;99.90;;;;;;5070355;28;20041;-72
2023/03/30 08:02:29;;;;;;;5.25;1.55;;;12.00;99.90;;;;;;5069753;28;20040;-71
2023/03/30 08:04:55;;;;;;;8.13;1.20;;;11.90;99.90;;;;;;5082145;28;20586;-72
2023/03/30 08:07:21;;;;;;;5.70;1.42;;;12.00;99.90;;;;;;5090194;28;20043;-72
2023/03/30 08:09:47;;;;;;;3.97;1.23;;;11.90;99.90;;;;;;5090489;28;20059;-71
2023/03/30 08:12:12;;;;;;;4.35;1.00;;;11.90;99.90;;;;;;5086175;28;20037;-71
2023/03/30 08:14:38;;;;;;;4.43;1.40;;;11.90;99.90;;;;;;5104071;28;20259;-72
2023/03/30 08:17:03;;;;;;;5.45;1.40;;;12.00;99.90;;;;;;5090487;28;20083;-71
2023/03/30 08:19:29;;;;;;;5.47;1.23;;;12.00;99.90;;;;;;5067292;28;20040;-72
2023/03/30 08:21:55;;;;;;;9.40;1.40;;;11.90;99.90;;;;;;5088141;28;20044;-71
2023/03/30 08:24:21;;;;;;;7.10;1.27;;;12.00;99.90;;;;;;5090007;28;20051;-72
2023/03/30 08:26:47;;;;;;;5.20;1.50;;;12.00;99.90;;;;;;5077868;28;20041;-72
2023/03/30 08:29:12;;;;;;;5.88;1.30;;;11.90;99.90;;;;;;5120863;27;20398;-72
2023/03/30 08:31:38;;;;;;;4.70;1.38;;;11.90;99.90;;;;;;5079917;28;20043;-71
2023/03/30 08:34:05;;;;;;;12.07;1.40;;;11.90;99.90;;;;;;5070181;28;20040;-72
2023/03/30 08:36:31;;;;;;;4.88;1.50;;;11.90;99.90;;;;;;5068996;28;20048;-72
2023/03/30 08:38:56;;;;;;;10.07;2.28;;;11.80;99.90;;;;;;5087313;28;20043;-72
2023/03/30 08:41:28;;;;;;;6.72;1.58;;;11.90;99.90;;;;;;5081315;28;20493;-72
2023/03/30 08:44:21;;;;;;;6.32;1.83;;;11.80;99.90;;;;;;5090138;28;20044;-72
2023/03/30 08:46:47;;;;;;;3.72;1.33;;;11.80;99.90;;;;;;5087767;28;20516;-72
2023/03/30 08:49:16;;;;;;;5.32;1.40;;;11.90;99.90;;;;;;5073100;28;20072;-71
2023/03/30 08:51:43;;;;;;;3.97;1.42;;;11.90;99.90;;;;;;5102350;27;20106;-71
2023/03/30 08:54:14;;;;;;;5.45;1.02;;;11.80;99.90;;;;;;5079312;28;20554;-71
2023/03/30 08:56:56;;;;;;;5.60;1.63;;;11.80;99.90;;;;;;5048397;28;20076;-71
2023/03/30 08:59:55;;;;;;;6.97;1.40;;;11.80;99.90;;;;;;5088668;28;20517;-71
2023/03/30 09:02:32;;;;;;;4.65;1.33;;;11.70;99.90;;;;;;5058380;28;20048;-71
2023/03/30 09:05:13;;;;;;;4.05;1.63;;;11.80;99.90;;;;;;5067558;28;20032;-71
2023/03/30 09:07:46;;;;;;;4.30;1.00;;;11.80;99.90;;;;;;5074043;28;20052;-71
2023/03/30 09:10:14;;;;;;;5.40;1.85;;;11.80;99.90;;;;;;5074528;28;20115;-71
2023/03/30 09:12:47;;;;;;;5.75;1.00;;;11.80;99.90;;;;;;5073254;28;20102;-71
2023/03/30 09:15:20;;;;;;;5.25;1.40;;;11.80;99.90;;;;;;5075231;28;20040;-71
2023/03/30 09:18:15;;;;;;;9.40;1.25;;;11.80;99.90;;;;;;5064816;28;20309;-71
2023/03/30 09:20:43;;;;;;;4.28;0.95;;;11.90;99.90;;;;;;5053830;28;20051;-71
2023/03/30 09:23:13;;;;;;;5.20;1.20;;;11.90;99.90;;;;;;5096884;28;20048;-72
2023/03/30 09:25:48;;;;;;;4.63;1.20;;;12.00;99.90;;;;;;5080412;28;20054;-73
2023/03/30 09:28:59;;;;;;;4.97;1.02;;;12.10;99.90;;;;;;5071704;28;20502;-71
2023/03/30 09:31:34;;;;;;;5.97;1.10;;;12.20;99.90;;;;;;5062653;28;20464;-72
2023/03/30 09:34:11;;;;;;;3.47;1.33;;;12.30;99.90;;;;;;5071910;28;20396;-72
2023/03/30 09:36:58;;;;;;;5.32;1.25;;;12.40;99.90;;;;;;5068634;28;20048;-72
2023/03/30 09:39:26;;;;;;;2.83;0.80;;;12.50;99.90;;;;;;5095410;28;20044;-73
2023/03/30 09:42:23;;;;;;;2.75;0.63;;;12.50;99.90;;;;;;5075689;28;20047;-71
2023/03/30 09:45:06;;;;;;;4.85;1.55;;;12.50;99.90;;;;;;5071875;28;20067;-71
2023/03/30 09:47:35;;;;;;;5.25;0.90;;;12.50;99.90;;;;;;5070826;28;20518;-71
2023/03/30 09:50:07;;;;;;;5.60;0.95;;;12.50;99.90;;;;;;5051662;28;20047;-71
2023/03/30 09:52:38;;;;;;;4.30;1.13;;;12.60;99.90;;;;;;5078849;28;20055;-71
2023/03/30 09:55:20;;;;;;;6.88;1.00;;;12.70;99.90;;;;;;5058423;28;20047;-72
2023/03/30 09:57:46;;;;;;;7.03;1.08;;;12.70;99.90;;;;;;5095314;27;20048;-71
2023/03/30 10:00:32;;;;;;;7.57;1.23;;;12.70;99.90;;;;;;5091580;28;20057;-72
2023/03/30 10:03:03;;;;;;;5.57;0.77;;;12.70;99.90;;;;;;5061525;28;20032;-71
2023/03/30 10:05:31;;;;;;;2.90;0.63;;;12.70;99.90;;;;;;5075662;28;20059;-72
2023/03/30 10:08:03;;;;;;;7.85;1.10;;;12.60;99.90;;;;;;5082428;28;20370;-71
2023/03/30 10:10:34;;;;;;;6.68;0.90;;;12.60;99.90;;;;;;5073718;28;20055;-72
2023/03/30 10:13:12;;;;;;;5.18;1.40;;;12.60;99.90;;;;;;5073045;28;20068;-71
2023/03/30 10:15:43;;;;;;;6.43;0.73;;;12.50;99.90;;;;;;5109999;27;20040;-71
2023/03/30 10:18:18;;;;;;;4.85;0.77;;;12.50;99.90;;;;;;5081166;28;20041;-70
2023/03/30 10:21:00;;;;;;;5.35;0.52;;;12.50;99.90;;;;;;5071588;28;20825;-71
2023/03/30 10:23:32;;;;;;;4.05;1.23;;;12.50;99.90;;;;;;5100348;27;20048;-71
2023/03/30 10:26:02;;;;;;;5.05;1.13;;;12.50;99.90;;;;;;5076493;28;20040;-71
2023/03/30 10:28:30;;;;;;;4.50;0.73;;;12.50;99.90;;;;;;5101419;27;20043;-71
2023/03/30 10:30:59;;;;;;;3.42;0.75;;;12.50;99.90;;;;;;5078237;28;20382;-72
2023/03/30 10:33:27;;;;;;;3.25;0.60;;;12.50;99.90;;;;;;5059361;28;20044;-71
2023/03/30 10:35:55;;;;;;;6.30;1.13;;;12.50;99.90;;;;;;5082062;28;20040;-71
2023/03/30 10:38:22;;;;;;;5.97;0.80;;;12.50;99.90;;;;;;5075623;28;20416;-72
2023/03/30 10:40:54;;;;;;;4.88;1.00;;;12.50;99.90;;;;;;5074438;28;20111;-71
2023/03/30 10:43:26;;;;;;;4.85;0.88;;;12.50;99.90;;;;;;5080242;28;20684;-71
2023/03/30 10:45:56;;;;;;;3.08;0.82;;;12.50;99.90;;;;;;5063910;28;20039;-71
2023/03/30 10:48:27;;;;;;;4.85;0.85;;;12.50;99.90;;;;;;5072479;28;20493;-71
2023/03/30 10:51:00;;;;;;;1.83;0.68;;;12.50;99.90;;;;;;5076724;28;20099;-72
2023/03/30 10:53:39;;;;;;;4.72;0.90;;;12.60;99.90;;;;;;5061002;28;20539;-71
2023/03/30 10:56:18;;;;;;;4.10;1.05;;;12.70;99.90;;;;;;5078636;28;20048;-73
2023/03/30 10:58:51;;;;;;;4.18;0.70;;;12.90;99.90;;;;;;5078920;28;20043;-72
2023/03/30 11:01:45;;;;;;;4.43;0.93;;;12.90;99.90;;;;;;5076370;28;20129;-71
2023/03/30 11:04:24;;;;;;;3.47;1.00;;;12.90;99.90;;;;;;5075541;28;20051;-72
2023/03/30 11:06:53;;;;;;;7.47;1.30;;;13.00;99.90;;;;;;5080336;28;20450;-71
2023/03/30 11:09:23;;;;;;;3.53;0.65;;;12.90;99.90;;;;;;5087693;28;20529;-71
2023/03/30 11:11:58;;;;;;;3.15;0.90;;;12.90;99.90;;;;;;5071612;28;20053;-71
2023/03/30 11:14:34;;;;;;;4.65;0.80;;;12.90;99.90;;;;;;5100345;27;20048;-71
2023/03/30 11:17:33;;;;;;;7.35;1.00;;;12.90;99.90;;;;;;5077517;28;20066;-72
2023/03/30 11:20:15;;;;;;;4.80;1.10;;;12.90;99.90;;;;;;5076678;28;20097;-71
2023/03/30 11:22:47;;;;;;;3.60;1.00;;;12.90;99.90;;;;;;5085771;28;20082;-71
2023/03/30 11:25:22;;;;;;;3.72;0.60;;;12.90;99.90;;;;;;5075371;28;20490;-72
2023/03/30 11:28:14;;;;;;;5.07;1.10;;;12.90;99.90;;;;;;5072272;28;20041;-71
2023/03/30 11:30:41;;;;;;;4.93;1.05;;;13.00;99.90;;;;;;5070668;28;20079;-71
2023/03/30 11:33:18;;;;;;;3.95;0.90;;;13.10;99.90;;;;;;5071283;28;20119;-71
2023/03/30 11:35:52;;;;;;;6.45;0.82;;;13.10;99.90;;;;;;5099706;27;20044;-71
2023/03/30 11:38:24;;;;;;;4.15;1.08;;;13.20;99.90;;;;;;5067401;28;20044;-71
2023/03/30 11:40:52;;;;;;;4.03;1.05;;;13.20;99.90;;;;;;5069966;28;20068;-71
2023/03/30 11:43:22;;;;;;;4.05;1.27;;;13.20;99.90;;;;;;5073960;28;20044;-71
2023/03/30 11:45:57;;;;;;;4.90;0.68;;;13.30;99.90;;;;;;5068461;28;20036;-71
2023/03/30 11:48:39;;;;;;;5.20;0.87;;;13.30;99.90;;;;;;5104987;27;20040;-71
2023/03/30 11:51:21;;;;;;;3.88;1.35;;;13.50;99.90;;;;;;5052178;28;20123;-72
2023/03/30 11:53:50;;;;;;;2.63;0.75;;;13.50;99.90;;;;;;5053222;28;20028;-71
2023/03/30 11:56:38;;;;;;;4.45;0.70;;;13.80;99.90;;;;;;5070801;28;20385;-71
2023/03/30 11:59:38;;;;;;;6.90;0.98;;;13.80;99.90;;;;;;5105597;27;20293;-72
2023/03/30 12:02:39;;;;;;;8.23;1.10;;;13.90;99.90;;;;;;4986138;28;20067;-72
2023/03/30 12:05:14;;;;;;;8.38;1.20;;;14.00;99.90;;;;;;5032687;28;20056;-71
2023/03/30 12:07:55;;;;;;;;;;;14.00;99.90;;;;;;5071579;28;20040;-71
2023/03/30 12:10:33;;;;;;;5.13;0.90;;;14.10;99.90;;;;;;5072621;28;19916;-71
2023/03/30 12:13:01;;;;;;;5.32;0.98;;;14.10;99.90;;;;;;5070606;28;20041;-71
2023/03/30 12:15:29;;;;;;;7.03;1.15;;;14.10;99.90;;;;;;5069678;28;20044;-71
2023/03/30 12:18:08;;;;;;;7.13;1.20;;;14.20;99.90;;;;;;5070739;28;20043;-71
2023/03/30 12:20:55;;;;;;;6.63;1.30;;;14.20;99.90;;;;;;5064602;28;20068;-71
2023/03/30 12:23:53;;;;;;;4.95;0.82;;;14.10;99.90;;;;;;5106406;27;20044;-71
2023/03/30 12:26:31;;;;;;;4.20;0.90;;;14.00;99.90;;;;;;5101810;27;20048;-71
2023/03/30 12:29:07;;;;;;;4.72;0.88;;;13.90;99.90;;;;;;5082847;27;20114;-71
2023/03/30 12:31:54;;;;;;;5.95;1.25;;;13.90;99.90;;;;;;5069356;28;20090;-71
2023/03/30 12:34:22;;;;;;;11.40;1.02;;;13.90;99.90;;;;;;5062961;28;20640;-72
2023/03/30 12:37:03;;;;;;;4.75;0.85;;;13.80;99.90;;;;;;5054818;28;20093;-71
2023/03/30 12:39:43;;;;;;;5.80;1.08;;;13.80;99.90;;;;;;5051929;28;20123;-71
2023/03/30 12:42:33;;;;;;;4.95;1.08;;;13.60;99.90;;;;;;5074384;28;20078;-71
2023/03/30 12:45:19;;;;;;;7.75;1.42;;;13.50;99.90;;;;;;5066556;28;20334;-71
2023/03/30 12:48:29;;;;;;;7.10;1.65;;;13.40;99.90;;;;;;5099241;27;21349;-71
2023/03/30 12:51:06;;;;;;;7.85;1.02;;;13.40;99.90;;;;;;5092920;27;20036;-71
2023/03/30 12:53:46;;;;;;;4.60;1.38;;;13.50;99.90;;;;;;5063178;28;20046;-71
2023/03/30 12:56:36;;;;;;;7.05;1.10;;;13.70;99.90;;;;;;5053516;28;20044;-71
2023/03/30 12:59:19;;;;;;;5.57;0.80;;;13.70;99.90;;;;;;5062035;28;20048;-71
2023/03/30 13:02:04;;;;;;;5.00;0.45;;;13.70;99.90;;;;;;5068283;28;20037;-71
2023/03/30 13:04:38;;;;;;;5.47;0.80;;;13.70;99.90;;;;;;5100422;27;20044;-71
2023/03/30 13:07:26;;;;;;;6.50;0.82;;;13.70;99.90;;;;;;5098178;27;20437;-71
2023/03/30 13:10:00;;;;;;;8.55;1.33;;;13.70;99.90;;;;;;5067437;28;20043;-71
2023/03/30 13:12:26;;;;;;;8.63;0.88;;;13.70;99.90;;;;;;5066629;28;20098;-72
2023/03/30 13:15:19;;;;;;;4.47;0.98;;;13.80;99.90;;;;;;5050314;28;20427;-71